sensor_id;sensor_type;location;lat;lon;timestamp;pressure;altitude;pressure_sealevel;temperature;humidity
15308;BME280;7755;52.208;6.964;2022-10-31T00:02:46;101661.59;;;14.77;100.00
15308;BME280;7755;52.208;6.964;2022-10-31T00:06:49;101665.31;;;14.70;100.00
15308;BME280;7755;52.208;6.964;2022-10-31T00:10:51;101655.34;;;14.64;100.00
15308;BME280;7755;52.208;6.964;2022-10-31T00:14:52;101657.16;;;14.59;100.00
15308;BME280;7755;52.208;6.964;2022-10-31T00:18:58;101649.34;;;14.51;100.00
15308;BME280;7755;52.208;6.964;2022-10-31T00:23:01;101653.47;;;14.41;100.00
15308;BME280;7755;52.208;6.964;2022-10-31T00:27:03;101654.44;;;14.35;100.00
15308;BME280;7755;52.208;6.964;2022-10-31T00:31:07;101655.19;;;14.31;100.00
15308;BME280;7755;52.208;6.964;2022-10-31T00:35:11;101666.28;;;14.24;100.00
15308;BME280;7755;52.208;6.964;2022-10-31T00:39:13;101664.50;;;14.18;100.00
15308;BME280;7755;52.208;6.964;2022-10-31T00:43:14;101666.53;;;14.11;100.00
15308;BME280;7755;52.208;6.964;2022-10-31T00:47:16;101671.31;;;14.04;100.00
15308;BME280;7755;52.208;6.964;2022-10-31T00:51:21;101672.00;;;13.99;100.00
15308;BME280;7755;52.208;6.964;2022-10-31T00:55:23;101674.63;;;13.94;100.00
15308;BME280;7755;52.208;6.964;2022-10-31T00:59:26;101681.41;;;13.91;100.00
15308;BME280;7755;52.208;6.964;2022-10-31T01:03:30;101689.03;;;13.89;100.00
15308;BME280;7755;52.208;6.964;2022-10-31T01:07:36;101692.81;;;13.88;100.00
15308;BME280;7755;52.208;6.964;2022-10-31T01:11:38;101679.13;;;13.88;100.00
15308;BME280;7755;52.208;6.964;2022-10-31T01:15:42;101684.84;;;13.87;100.00
15308;BME280;7755;52.208;6.964;2022-10-31T01:19:44;101690.56;;;13.85;100.00
15308;BME280;7755;52.208;6.964;2022-10-31T01:23:48;101686.41;;;13.83;100.00
15308;BME280;7755;52.208;6.964;2022-10-31T01:27:50;101686.88;;;13.80;100.00
15308;BME280;7755;52.208;6.964;2022-10-31T01:31:52;101680.00;;;13.77;100.00
15308;BME280;7755;52.208;6.964;2022-10-31T01:35:54;101680.69;;;13.73;100.00
15308;BME280;7755;52.208;6.964;2022-10-31T01:39:57;101680.34;;;13.69;100.00
15308;BME280;7755;52.208;6.964;2022-10-31T01:44:01;101674.50;;;13.65;100.00
15308;BME280;7755;52.208;6.964;2022-10-31T01:48:05;101671.66;;;13.60;100.00
15308;BME280;7755;52.208;6.964;2022-10-31T01:52:11;101665.84;;;13.57;100.00
15308;BME280;7755;52.208;6.964;2022-10-31T01:56:18;101668.22;;;13.53;100.00
15308;BME280;7755;52.208;6.964;2022-10-31T02:00:22;101663.81;;;13.52;100.00
15308;BME280;7755;52.208;6.964;2022-10-31T02:04:25;101665.72;;;13.52;100.00
15308;BME280;7755;52.208;6.964;2022-10-31T02:08:29;101672.50;;;13.49;100.00
15308;BME280;7755;52.208;6.964;2022-10-31T02:12:34;101669.16;;;13.47;100.00
15308;BME280;7755;52.208;6.964;2022-10-31T02:16:38;101674.03;;;13.45;100.00
15308;BME280;7755;52.208;6.964;2022-10-31T02:20:48;101683.88;;;13.46;100.00
15308;BME280;7755;52.208;6.964;2022-10-31T02:25:03;101678.78;;;13.50;100.00
15308;BME280;7755;52.208;6.964;2022-10-31T02:29:37;101677.97;;;13.49;100.00
15308;BME280;7755;52.208;6.964;2022-10-31T02:33:51;101688.88;;;13.49;100.00
15308;BME280;7755;52.208;6.964;2022-10-31T02:37:59;101683.28;;;13.44;100.00
15308;BME280;7755;52.208;6.964;2022-10-31T02:42:08;101673.41;;;13.31;100.00
15308;BME280;7755;52.208;6.964;2022-10-31T02:46:14;101674.84;;;13.22;100.00
15308;BME280;7755;52.208;6.964;2022-10-31T02:50:23;101662.34;;;13.26;100.00
15308;BME280;7755;52.208;6.964;2022-10-31T02:54:27;101671.50;;;13.32;100.00
15308;BME280;7755;52.208;6.964;2022-10-31T02:58:33;101671.50;;;13.32;100.00
15308;BME280;7755;52.208;6.964;2022-10-31T03:02:45;101677.66;;;13.27;100.00
15308;BME280;7755;52.208;6.964;2022-10-31T03:06:55;101681.38;;;13.21;100.00
15308;BME280;7755;52.208;6.964;2022-10-31T03:11:01;101677.97;;;13.19;100.00
15308;BME280;7755;52.208;6.964;2022-10-31T03:15:13;101678.47;;;13.16;100.00
15308;BME280;7755;52.208;6.964;2022-10-31T03:19:18;101689.84;;;13.13;100.00
15308;BME280;7755;52.208;6.964;2022-10-31T03:23:23;101698.75;;;13.08;100.00
15308;BME280;7755;52.208;6.964;2022-10-31T03:27:29;101692.91;;;13.05;100.00
15308;BME280;7755;52.208;6.964;2022-10-31T03:31:37;101701.78;;;13.00;100.00
15308;BME280;7755;52.208;6.964;2022-10-31T03:35:41;101695.38;;;12.95;100.00
15308;BME280;7755;52.208;6.964;2022-10-31T03:39:48;101687.03;;;12.90;100.00
15308;BME280;7755;52.208;6.964;2022-10-31T03:43:59;101678.72;;;12.84;100.00
15308;BME280;7755;52.208;6.964;2022-10-31T03:48:03;101668.28;;;12.81;100.00
15308;BME280;7755;52.208;6.964;2022-10-31T03:52:13;101673.81;;;12.75;100.00
15308;BME280;7755;52.208;6.964;2022-10-31T03:56:25;101681.53;;;12.78;100.00
15308;BME280;7755;52.208;6.964;2022-10-31T04:00:32;101683.66;;;12.76;100.00
15308;BME280;7755;52.208;6.964;2022-10-31T04:04:36;101686.00;;;12.72;100.00
15308;BME280;7755;52.208;6.964;2022-10-31T04:08:42;101686.50;;;12.69;100.00
15308;BME280;7755;52.208;6.964;2022-10-31T04:12:55;101696.41;;;12.64;100.00
15308;BME280;7755;52.208;6.964;2022-10-31T04:17:09;101696.28;;;12.58;100.00
15308;BME280;7755;52.208;6.964;2022-10-31T04:21:15;101696.97;;;12.54;100.00
15308;BME280;7755;52.208;6.964;2022-10-31T04:25:17;101692.88;;;12.45;100.00
15308;BME280;7755;52.208;6.964;2022-10-31T04:29:20;101698.72;;;12.30;100.00
15308;BME280;7755;52.208;6.964;2022-10-31T04:33:23;101698.19;;;12.21;100.00
15308;BME280;7755;52.208;6.964;2022-10-31T04:37:25;101696.75;;;12.19;100.00
15308;BME280;7755;52.208;6.964;2022-10-31T04:41:29;101703.97;;;12.13;100.00
15308;BME280;7755;52.208;6.964;2022-10-31T04:45:38;101704.63;;;12.09;100.00
15308;BME280;7755;52.208;6.964;2022-10-31T04:49:40;101693.56;;;12.03;100.00
15308;BME280;7755;52.208;6.964;2022-10-31T04:53:43;101700.75;;;11.98;100.00
15308;BME280;7755;52.208;6.964;2022-10-31T04:58:03;101697.25;;;11.91;100.00
15308;BME280;7755;52.208;6.964;2022-10-31T05:02:08;101689.78;;;11.86;100.00
15308;BME280;7755;52.208;6.964;2022-10-31T05:06:21;101687.28;;;11.78;100.00
15308;BME280;7755;52.208;6.964;2022-10-31T05:10:25;101689.47;;;11.69;100.00
15308;BME280;7755;52.208;6.964;2022-10-31T05:14:28;101684.69;;;11.65;100.00
15308;BME280;7755;52.208;6.964;2022-10-31T05:18:50;101682.47;;;11.55;100.00
15308;BME280;7755;52.208;6.964;2022-10-31T05:23:11;101678.38;;;11.46;100.00
15308;BME280;7755;52.208;6.964;2022-10-31T05:27:14;101670.47;;;11.38;100.00
15308;BME280;7755;52.208;6.964;2022-10-31T05:31:16;101671.16;;;11.33;100.00
15308;BME280;7755;52.208;6.964;2022-10-31T05:35:21;101665.28;;;11.30;100.00
15308;BME280;7755;52.208;6.964;2022-10-31T05:39:43;101665.16;;;11.25;100.00
15308;BME280;7755;52.208;6.964;2022-10-31T05:43:49;101661.19;;;11.20;100.00
15308;BME280;7755;52.208;6.964;2022-10-31T05:47:57;101670.84;;;11.16;100.00
15308;BME280;7755;52.208;6.964;2022-10-31T05:52:19;101660.63;;;11.12;100.00
15308;BME280;7755;52.208;6.964;2022-10-31T05:56:29;101671.53;;;11.12;100.00
15308;BME280;7755;52.208;6.964;2022-10-31T06:00:32;101680.94;;;11.09;100.00
15308;BME280;7755;52.208;6.964;2022-10-31T06:04:40;101677.00;;;11.05;100.00
15308;BME280;7755;52.208;6.964;2022-10-31T06:08:45;101672.22;;;11.01;100.00
15308;BME280;7755;52.208;6.964;2022-10-31T06:12:50;101681.44;;;11.00;100.00
15308;BME280;7755;52.208;6.964;2022-10-31T06:17:04;101674.09;;;11.00;100.00
15308;BME280;7755;52.208;6.964;2022-10-31T06:21:21;101680.59;;;10.99;100.00
15308;BME280;7755;52.208;6.964;2022-10-31T06:25:27;101681.66;;;10.98;100.00
15308;BME280;7755;52.208;6.964;2022-10-31T06:29:29;101669.94;;;10.98;100.00
15308;BME280;7755;52.208;6.964;2022-10-31T06:33:44;101674.34;;;10.99;100.00
15308;BME280;7755;52.208;6.964;2022-10-31T06:37:51;101679.78;;;10.99;100.00
15308;BME280;7755;52.208;6.964;2022-10-31T06:42:04;101679.78;;;10.99;100.00
15308;BME280;7755;52.208;6.964;2022-10-31T06:46:07;101691.25;;;11.01;100.00
15308;BME280;7755;52.208;6.964;2022-10-31T06:50:16;101689.16;;;11.03;100.00
15308;BME280;7755;52.208;6.964;2022-10-31T06:54:20;101689.97;;;11.03;100.00
15308;BME280;7755;52.208;6.964;2022-10-31T06:58:25;101693.16;;;11.00;100.00
15308;BME280;7755;52.208;6.964;2022-10-31T07:02:31;101696.28;;;10.97;100.00
15308;BME280;7755;52.208;6.964;2022-10-31T07:06:35;101697.34;;;10.96;100.00
15308;BME280;7755;52.208;6.964;2022-10-31T07:10:38;101705.31;;;10.98;100.00
15308;BME280;7755;52.208;6.964;2022-10-31T07:14:42;101704.25;;;10.99;100.00
15308;BME280;7755;52.208;6.964;2022-10-31T07:18:44;101704.25;;;10.99;100.00
15308;BME280;7755;52.208;6.964;2022-10-31T07:22:47;101705.13;;;10.92;100.00
15308;BME280;7755;52.208;6.964;2022-10-31T07:26:49;101708.47;;;10.94;100.00
15308;BME280;7755;52.208;6.964;2022-10-31T07:30:55;101712.19;;;11.00;100.00
15308;BME280;7755;52.208;6.964;2022-10-31T07:34:58;101713.63;;;11.03;100.00
15308;BME280;7755;52.208;6.964;2022-10-31T07:39:11;101714.06;;;11.06;100.00
15308;BME280;7755;52.208;6.964;2022-10-31T07:43:13;101710.50;;;11.06;100.00
15308;BME280;7755;52.208;6.964;2022-10-31T07:47:41;101703.81;;;11.02;100.00
15308;BME280;7755;52.208;6.964;2022-10-31T07:52:02;101710.09;;;11.02;100.00
15308;BME280;7755;52.208;6.964;2022-10-31T07:56:23;101704.41;;;11.04;100.00
15308;BME280;7755;52.208;6.964;2022-10-31T08:00:27;101704.84;;;11.07;100.00
15308;BME280;7755;52.208;6.964;2022-10-31T08:04:32;101708.78;;;11.11;100.00
15308;BME280;7755;52.208;6.964;2022-10-31T08:08:52;101712.06;;;11.20;100.00
15308;BME280;7755;52.208;6.964;2022-10-31T08:12:56;101703.63;;;11.28;100.00
15308;BME280;7755;52.208;6.964;2022-10-31T08:16:59;101704.00;;;11.38;100.00
15308;BME280;7755;52.208;6.964;2022-10-31T08:21:12;101699.69;;;11.49;100.00
15308;BME280;7755;52.208;6.964;2022-10-31T08:25:14;101696.25;;;11.60;100.00
15308;BME280;7755;52.208;6.964;2022-10-31T08:29:17;101690.47;;;11.75;100.00
15308;BME280;7755;52.208;6.964;2022-10-31T08:33:21;101689.91;;;11.91;100.00
15308;BME280;7755;52.208;6.964;2022-10-31T08:37:44;101681.38;;;12.06;100.00
15308;BME280;7755;52.208;6.964;2022-10-31T08:41:45;101692.28;;;12.24;100.00
15308;BME280;7755;52.208;6.964;2022-10-31T08:45:48;101689.78;;;12.41;100.00
15308;BME280;7755;52.208;6.964;2022-10-31T08:49:57;101691.66;;;12.59;100.00
15308;BME280;7755;52.208;6.964;2022-10-31T08:54:01;101685.81;;;12.74;100.00
15308;BME280;7755;52.208;6.964;2022-10-31T08:58:11;101685.16;;;12.90;100.00
15308;BME280;7755;52.208;6.964;2022-10-31T09:02:20;101686.38;;;13.06;100.00
15308;BME280;7755;52.208;6.964;2022-10-31T09:06:26;101682.78;;;13.24;100.00
15308;BME280;7755;52.208;6.964;2022-10-31T09:10:33;101686.47;;;13.41;100.00
15308;BME280;7755;52.208;6.964;2022-10-31T09:14:36;101691.03;;;13.59;100.00
15308;BME280;7755;52.208;6.964;2022-10-31T09:19:02;101682.72;;;13.77;100.00
15308;BME280;7755;52.208;6.964;2022-10-31T09:23:06;101674.63;;;13.94;100.00
15308;BME280;7755;52.208;6.964;2022-10-31T09:27:14;101679.13;;;14.12;100.00
15308;BME280;7755;52.208;6.964;2022-10-31T09:31:19;101679.81;;;14.31;100.00
15308;BME280;7755;52.208;6.964;2022-10-31T09:35:40;101678.34;;;14.52;100.00
15308;BME280;7755;52.208;6.964;2022-10-31T09:39:42;101673.59;;;14.75;100.00
15308;BME280;7755;52.208;6.964;2022-10-31T09:44:01;101667.53;;;15.02;100.00
15308;BME280;7755;52.208;6.964;2022-10-31T09:48:23;101659.03;;;15.32;100.00
15308;BME280;7755;52.208;6.964;2022-10-31T09:52:49;101653.09;;;15.57;100.00
15308;BME280;7755;52.208;6.964;2022-10-31T09:56:53;101659.75;;;15.78;100.00
15308;BME280;7755;52.208;6.964;2022-10-31T10:01:00;101648.19;;;15.93;100.00
15308;BME280;7755;52.208;6.964;2022-10-31T10:05:06;101649.75;;;16.05;100.00
15308;BME280;7755;52.208;6.964;2022-10-31T10:09:14;101644.94;;;16.18;100.00
15308;BME280;7755;52.208;6.964;2022-10-31T10:18:19;101633.09;;;16.34;100.00
15308;BME280;7755;52.208;6.964;2022-10-31T10:22:31;101610.88;;;16.35;100.00
15308;BME280;7755;52.208;6.964;2022-10-31T10:26:38;101628.16;;;16.36;100.00
15308;BME280;7755;52.208;6.964;2022-10-31T10:30:46;101625.69;;;16.34;100.00
15308;BME280;7755;52.208;6.964;2022-10-31T10:34:51;101624.25;;;16.32;100.00
15308;BME280;7755;52.208;6.964;2022-10-31T10:38:57;101619.03;;;16.30;100.00
15308;BME280;7755;52.208;6.964;2022-10-31T10:43:21;101608.38;;;16.34;100.00
15308;BME280;7755;52.208;6.964;2022-10-31T10:47:24;101601.63;;;16.42;100.00
15308;BME280;7755;52.208;6.964;2022-10-31T10:51:44;101596.19;;;16.47;100.00
15308;BME280;7755;52.208;6.964;2022-10-31T10:55:52;101589.91;;;16.51;100.00
15308;BME280;7755;52.208;6.964;2022-10-31T10:59:55;101585.09;;;16.63;100.00
15308;BME280;7755;52.208;6.964;2022-10-31T11:03:57;101582.72;;;16.72;100.00
15308;BME280;7755;52.208;6.964;2022-10-31T11:08:00;101564.94;;;16.80;100.00
15308;BME280;7755;52.208;6.964;2022-10-31T11:12:08;101567.78;;;16.90;100.00
15308;BME280;7755;52.208;6.964;2022-10-31T11:16:12;101558.50;;;16.96;100.00
15308;BME280;7755;52.208;6.964;2022-10-31T11:20:36;101538.50;;;17.06;100.00
15308;BME280;7755;52.208;6.964;2022-10-31T11:24:40;101530.34;;;17.16;100.00
15308;BME280;7755;52.208;6.964;2022-10-31T11:28:43;101524.63;;;17.23;100.00
15308;BME280;7755;52.208;6.964;2022-10-31T11:32:50;101526.06;;;17.30;100.00
15308;BME280;7755;52.208;6.964;2022-10-31T11:36:53;101522.78;;;17.38;100.00
15308;BME280;7755;52.208;6.964;2022-10-31T11:40:59;101517.88;;;17.45;100.00
15308;BME280;7755;52.208;6.964;2022-10-31T11:45:13;101523.41;;;17.51;100.00
15308;BME280;7755;52.208;6.964;2022-10-31T11:49:19;101501.19;;;17.57;100.00
15308;BME280;7755;52.208;6.964;2022-10-31T11:53:27;101498.47;;;17.62;100.00
15308;BME280;7755;52.208;6.964;2022-10-31T11:57:33;101497.63;;;17.67;100.00
15308;BME280;7755;52.208;6.964;2022-10-31T12:01:39;101468.53;;;17.71;99.90
15308;BME280;7755;52.208;6.964;2022-10-31T12:05:44;101452.88;;;17.77;100.00
15308;BME280;7755;52.208;6.964;2022-10-31T12:09:47;101440.53;;;17.84;99.85
15308;BME280;7755;52.208;6.964;2022-10-31T12:14:01;101425.13;;;17.93;99.79
15308;BME280;7755;52.208;6.964;2022-10-31T12:18:28;101431.78;;;18.03;98.94
15308;BME280;7755;52.208;6.964;2022-10-31T12:22:39;101434.25;;;18.04;99.42
15308;BME280;7755;52.208;6.964;2022-10-31T12:26:54;101422.44;;;18.09;99.79
15308;BME280;7755;52.208;6.964;2022-10-31T12:31:16;101412.25;;;18.09;100.00
15308;BME280;7755;52.208;6.964;2022-10-31T12:35:27;101406.47;;;18.11;99.60
15308;BME280;7755;52.208;6.964;2022-10-31T12:39:38;101412.78;;;18.11;99.32
15308;BME280;7755;52.208;6.964;2022-10-31T12:43:46;101424.34;;;18.03;98.78
15308;BME280;7755;52.208;6.964;2022-10-31T12:48:10;101403.97;;;17.99;98.83
15308;BME280;7755;52.208;6.964;2022-10-31T12:52:32;101394.59;;;17.95;99.23
15308;BME280;7755;52.208;6.964;2022-10-31T12:56:43;101377.56;;;17.98;99.94
15308;BME280;7755;52.208;6.964;2022-10-31T13:00:51;101362.44;;;17.95;99.25
15308;BME280;7755;52.208;6.964;2022-10-31T13:05:02;101353.88;;;17.92;99.98
15308;BME280;7755;52.208;6.964;2022-10-31T13:09:07;101345.91;;;17.90;100.00
15308;BME280;7755;52.208;6.964;2022-10-31T13:13:14;101335.44;;;17.82;100.00
15308;BME280;7755;52.208;6.964;2022-10-31T13:17:22;101340.13;;;17.87;100.00
15308;BME280;7755;52.208;6.964;2022-10-31T13:21:30;101337.63;;;17.85;100.00
15308;BME280;7755;52.208;6.964;2022-10-31T13:25:39;101340.38;;;17.85;100.00
15308;BME280;7755;52.208;6.964;2022-10-31T13:29:49;101311.78;;;17.86;100.00
15308;BME280;7755;52.208;6.964;2022-10-31T13:33:56;101311.78;;;17.91;100.00
15308;BME280;7755;52.208;6.964;2022-10-31T13:38:10;101307.09;;;17.92;100.00
15308;BME280;7755;52.208;6.964;2022-10-31T13:42:18;101300.25;;;17.89;100.00
15308;BME280;7755;52.208;6.964;2022-10-31T13:46:23;101291.72;;;17.91;100.00
15308;BME280;7755;52.208;6.964;2022-10-31T13:50:27;101285.09;;;17.87;100.00
15308;BME280;7755;52.208;6.964;2022-10-31T13:54:34;101281.53;;;17.86;100.00
15308;BME280;7755;52.208;6.964;2022-10-31T13:58:36;101273.25;;;17.81;100.00
15308;BME280;7755;52.208;6.964;2022-10-31T14:02:46;101270.78;;;17.80;100.00
15308;BME280;7755;52.208;6.964;2022-10-31T14:07:05;101272.19;;;17.77;100.00
15308;BME280;7755;52.208;6.964;2022-10-31T14:11:20;101250.16;;;17.77;100.00
15308;BME280;7755;52.208;6.964;2022-10-31T14:15:25;101243.56;;;17.78;100.00
15308;BME280;7755;52.208;6.964;2022-10-31T14:19:28;101235.03;;;17.80;100.00
15308;BME280;7755;52.208;6.964;2022-10-31T14:23:38;101218.81;;;17.78;100.00
15308;BME280;7755;52.208;6.964;2022-10-31T14:27:49;101199.84;;;17.71;100.00
15308;BME280;7755;52.208;6.964;2022-10-31T14:31:58;101199.25;;;17.69;100.00
15308;BME280;7755;52.208;6.964;2022-10-31T14:36:05;101189.09;;;17.65;100.00
15308;BME280;7755;52.208;6.964;2022-10-31T14:40:24;101181.66;;;17.60;100.00
15308;BME280;7755;52.208;6.964;2022-10-31T14:44:59;101173.16;;;17.57;100.00
15308;BME280;7755;52.208;6.964;2022-10-31T14:49:16;101192.38;;;17.57;100.00
15308;BME280;7755;52.208;6.964;2022-10-31T14:53:25;101184.13;;;17.57;100.00
15308;BME280;7755;52.208;6.964;2022-10-31T14:57:30;101184.69;;;17.54;100.00
15308;BME280;7755;52.208;6.964;2022-10-31T15:01:35;101168.19;;;17.49;100.00
15308;BME280;7755;52.208;6.964;2022-10-31T15:05:42;101176.44;;;17.49;100.00
15308;BME280;7755;52.208;6.964;2022-10-31T15:09:44;101162.13;;;17.46;100.00
15308;BME280;7755;52.208;6.964;2022-10-31T15:13:57;101150.88;;;17.43;100.00
15308;BME280;7755;52.208;6.964;2022-10-31T15:18:04;101140.44;;;17.35;100.00
15308;BME280;7755;52.208;6.964;2022-10-31T15:22:10;101145.38;;;17.33;100.00
15308;BME280;7755;52.208;6.964;2022-10-31T15:26:17;101144.00;;;17.30;100.00
15308;BME280;7755;52.208;6.964;2022-10-31T15:30:21;101140.97;;;17.27;100.00
15308;BME280;7755;52.208;6.964;2022-10-31T15:34:31;101134.94;;;17.25;100.00
15308;BME280;7755;52.208;6.964;2022-10-31T15:38:36;101113.22;;;17.23;100.00
15308;BME280;7755;52.208;6.964;2022-10-31T15:42:39;101103.88;;;17.19;100.00
15308;BME280;7755;52.208;6.964;2022-10-31T15:46:42;101087.66;;;17.17;100.00
15308;BME280;7755;52.208;6.964;2022-10-31T15:50:49;101077.50;;;17.13;100.00
15308;BME280;7755;52.208;6.964;2022-10-31T15:54:56;101086.84;;;17.12;100.00
15308;BME280;7755;52.208;6.964;2022-10-31T15:59:01;101090.97;;;17.09;100.00
15308;BME280;7755;52.208;6.964;2022-10-31T16:03:05;101092.06;;;17.03;100.00
15308;BME280;7755;52.208;6.964;2022-10-31T16:07:20;101085.19;;;16.90;100.00
15308;BME280;7755;52.208;6.964;2022-10-31T16:11:27;101064.59;;;16.88;100.00
15308;BME280;7755;52.208;6.964;2022-10-31T16:15:31;101060.19;;;16.82;100.00
15308;BME280;7755;52.208;6.964;2022-10-31T16:19:36;101063.19;;;16.75;100.00
15308;BME280;7755;52.208;6.964;2022-10-31T16:23:44;101072.78;;;16.68;100.00
15308;BME280;7755;52.208;6.964;2022-10-31T16:27:50;101071.38;;;16.65;100.00
15308;BME280;7755;52.208;6.964;2022-10-31T16:31:53;101063.97;;;16.60;100.00
15308;BME280;7755;52.208;6.964;2022-10-31T16:35:57;101042.00;;;16.55;100.00
15308;BME280;7755;52.208;6.964;2022-10-31T16:40:01;101041.19;;;16.55;100.00
15308;BME280;7755;52.208;6.964;2022-10-31T16:44:06;101032.09;;;16.49;100.00
15308;BME280;7755;52.208;6.964;2022-10-31T16:48:16;101039.81;;;16.47;100.00
15308;BME280;7755;52.208;6.964;2022-10-31T16:52:19;101030.72;;;16.42;100.00
15308;BME280;7755;52.208;6.964;2022-10-31T16:56:27;101023.03;;;16.44;100.00
15308;BME280;7755;52.208;6.964;2022-10-31T17:00:29;101017.28;;;16.40;100.00
15308;BME280;7755;52.208;6.964;2022-10-31T17:04:31;101010.41;;;16.37;100.00
15308;BME280;7755;52.208;6.964;2022-10-31T17:08:33;101007.66;;;16.37;100.00
15308;BME280;7755;52.208;6.964;2022-10-31T17:12:38;101011.50;;;16.42;100.00
15308;BME280;7755;52.208;6.964;2022-10-31T17:16:42;101002.47;;;16.41;100.00
15308;BME280;7755;52.208;6.964;2022-10-31T17:20:44;101001.88;;;16.39;100.00
15308;BME280;7755;52.208;6.964;2022-10-31T17:24:49;100994.75;;;16.38;100.00
15308;BME280;7755;52.208;6.964;2022-10-31T17:28:52;101002.16;;;16.37;100.00
15308;BME280;7755;52.208;6.964;2022-10-31T17:32:54;101000.81;;;16.35;100.00
15308;BME280;7755;52.208;6.964;2022-10-31T17:36:56;100993.38;;;16.30;100.00
15308;BME280;7755;52.208;6.964;2022-10-31T17:40:58;100983.22;;;16.26;100.00
15308;BME280;7755;52.208;6.964;2022-10-31T17:45:02;100983.22;;;16.21;100.00
15308;BME280;7755;52.208;6.964;2022-10-31T17:49:04;100971.41;;;16.20;100.00
15308;BME280;7755;52.208;6.964;2022-10-31T17:53:07;100968.38;;;16.17;100.00
15308;BME280;7755;52.208;6.964;2022-10-31T17:57:09;100962.63;;;16.18;100.00
15308;BME280;7755;52.208;6.964;2022-10-31T18:01:16;100950.81;;;16.18;100.00
15308;BME280;7755;52.208;6.964;2022-10-31T18:05:18;100945.63;;;16.16;100.00
15308;BME280;7755;52.208;6.964;2022-10-31T18:09:20;100943.44;;;16.13;100.00
15308;BME280;7755;52.208;6.964;2022-10-31T18:13:22;100944.78;;;16.16;100.00
15308;BME280;7755;52.208;6.964;2022-10-31T18:17:25;100943.41;;;16.18;100.00
15308;BME280;7755;52.208;6.964;2022-10-31T18:21:27;100926.41;;;16.21;100.00
15308;BME280;7755;52.208;6.964;2022-10-31T18:25:29;100935.47;;;16.22;100.00
15308;BME280;7755;52.208;6.964;2022-10-31T18:29:31;100937.94;;;16.23;100.00
15308;BME280;7755;52.208;6.964;2022-10-31T18:33:34;100930.00;;;16.22;100.00
15308;BME280;7755;52.208;6.964;2022-10-31T18:37:38;100933.56;;;16.27;100.00
15308;BME280;7755;52.208;6.964;2022-10-31T18:41:40;100924.50;;;16.27;100.00
15308;BME280;7755;52.208;6.964;2022-10-31T18:45:43;100911.31;;;16.24;100.00
15308;BME280;7755;52.208;6.964;2022-10-31T18:49:46;100908.03;;;16.22;100.00
15308;BME280;7755;52.208;6.964;2022-10-31T18:53:49;100906.69;;;16.19;100.00
15308;BME280;7755;52.208;6.964;2022-10-31T18:57:52;100899.28;;;16.20;100.00
15308;BME280;7755;52.208;6.964;2022-10-31T19:01:53;100895.41;;;16.16;100.00
15308;BME280;7755;52.208;6.964;2022-10-31T19:05:57;100896.22;;;16.11;100.00
15308;BME280;7755;52.208;6.964;2022-10-31T19:09:58;100885.25;;;16.06;100.00
15308;BME280;7755;52.208;6.964;2022-10-31T19:14:01;100887.44;;;16.04;100.00
15308;BME280;7755;52.208;6.964;2022-10-31T19:18:22;100884.72;;;15.99;100.00
15308;BME280;7755;52.208;6.964;2022-10-31T19:22:25;100878.09;;;15.90;100.00
15308;BME280;7755;52.208;6.964;2022-10-31T19:26:27;100877.53;;;15.82;100.00
15308;BME280;7755;52.208;6.964;2022-10-31T19:30:30;100867.38;;;15.83;100.00
15308;BME280;7755;52.208;6.964;2022-10-31T19:34:32;100868.22;;;15.78;100.00
15308;BME280;7755;52.208;6.964;2022-10-31T19:38:37;100856.13;;;15.74;100.00
15308;BME280;7755;52.208;6.964;2022-10-31T19:42:39;100857.22;;;15.68;100.00
15308;BME280;7755;52.208;6.964;2022-10-31T19:46:41;100840.75;;;15.58;100.00
15308;BME280;7755;52.208;6.964;2022-10-31T19:50:44;100839.59;;;15.49;100.00
15308;BME280;7755;52.208;6.964;2022-10-31T19:54:48;100832.16;;;15.44;100.00
15308;BME280;7755;52.208;6.964;2022-10-31T19:58:49;100836.56;;;15.40;100.00
15308;BME280;7755;52.208;6.964;2022-10-31T20:02:52;100824.75;;;15.29;100.00
15308;BME280;7755;52.208;6.964;2022-10-31T20:06:53;100821.16;;;15.24;100.00
15308;BME280;7755;52.208;6.964;2022-10-31T20:10:58;100824.16;;;15.22;100.00
15308;BME280;7755;52.208;6.964;2022-10-31T20:15:01;100823.91;;;15.19;100.00
15308;BME280;7755;52.208;6.964;2022-10-31T20:19:10;100825.25;;;15.11;100.00
15308;BME280;7755;52.208;6.964;2022-10-31T20:23:12;100833.69;;;15.05;100.00
15308;BME280;7755;52.208;6.964;2022-10-31T20:27:16;100830.63;;;14.96;100.00
15308;BME280;7755;52.208;6.964;2022-10-31T20:31:21;100821.00;;;14.88;100.00
15308;BME280;7755;52.208;6.964;2022-10-31T20:35:23;100818.25;;;14.78;100.00
15308;BME280;7755;52.208;6.964;2022-10-31T20:39:31;100819.03;;;14.73;100.00
15308;BME280;7755;52.208;6.964;2022-10-31T20:43:42;100811.31;;;14.65;100.00
15308;BME280;7755;52.208;6.964;2022-10-31T20:48:05;100807.19;;;14.63;100.00
15308;BME280;7755;52.208;6.964;2022-10-31T20:52:24;100803.38;;;14.64;100.00
15308;BME280;7755;52.208;6.964;2022-10-31T20:56:28;100806.66;;;14.66;100.00
15308;BME280;7755;52.208;6.964;2022-10-31T21:00:32;100802.28;;;14.65;100.00
15308;BME280;7755;52.208;6.964;2022-10-31T21:04:34;100806.91;;;14.59;100.00
15308;BME280;7755;52.208;6.964;2022-10-31T21:08:36;100795.91;;;14.54;100.00
15308;BME280;7755;52.208;6.964;2022-10-31T21:12:38;100796.75;;;14.50;100.00
15308;BME280;7755;52.208;6.964;2022-10-31T21:16:42;100799.16;;;14.46;100.00
15308;BME280;7755;52.208;6.964;2022-10-31T21:20:44;100801.31;;;14.44;100.00
15308;BME280;7755;52.208;6.964;2022-10-31T21:24:46;100786.81;;;14.43;100.00
15308;BME280;7755;52.208;6.964;2022-10-31T21:28:49;100792.28;;;14.43;100.00
15308;BME280;7755;52.208;6.964;2022-10-31T21:32:54;100779.13;;;14.40;100.00
15308;BME280;7755;52.208;6.964;2022-10-31T21:36:57;100781.31;;;14.38;100.00